sensor_id;sensor_type;location;lat;lon;timestamp;P1;durP1;ratioP1;P2;durP2;ratioP2
17832;SDS011;9041;49.718;21.798;2023-03-04T00:01:21;56.67;;;20.13;;
17832;SDS011;9041;49.718;21.798;2023-03-04T00:03:47;70.07;;;20.73;;
17832;SDS011;9041;49.718;21.798;2023-03-04T00:06:16;54.53;;;18.00;;
17832;SDS011;9041;49.718;21.798;2023-03-04T00:08:43;60.17;;;20.00;;
17832;SDS011;9041;49.718;21.798;2023-03-04T00:11:10;61.17;;;20.50;;
17832;SDS011;9041;49.718;21.798;2023-03-04T00:13:37;64.40;;;20.13;;
17832;SDS011;9041;49.718;21.798;2023-03-04T00:16:04;61.97;;;20.57;;
17832;SDS011;9041;49.718;21.798;2023-03-04T00:18:31;66.90;;;21.27;;
17832;SDS011;9041;49.718;21.798;2023-03-04T00:20:58;66.87;;;21.87;;
17832;SDS011;9041;49.718;21.798;2023-03-04T00:23:26;68.23;;;20.23;;
17832;SDS011;9041;49.718;21.798;2023-03-04T00:25:57;68.90;;;22.37;;
17832;SDS011;9041;49.718;21.798;2023-03-04T00:28:24;72.47;;;22.50;;
17832;SDS011;9041;49.718;21.798;2023-03-04T00:30:52;71.23;;;21.57;;
17832;SDS011;9041;49.718;21.798;2023-03-04T00:33:19;74.33;;;23.33;;
17832;SDS011;9041;49.718;21.798;2023-03-04T00:35:46;76.03;;;23.27;;
17832;SDS011;9041;49.718;21.798;2023-03-04T00:38:13;72.03;;;21.20;;
17832;SDS011;9041;49.718;21.798;2023-03-04T00:40:41;74.63;;;22.47;;
17832;SDS011;9041;49.718;21.798;2023-03-04T00:43:09;81.73;;;22.30;;
17832;SDS011;9041;49.718;21.798;2023-03-04T00:45:35;79.33;;;21.47;;
17832;SDS011;9041;49.718;21.798;2023-03-04T00:48:02;82.47;;;23.60;;
17832;SDS011;9041;49.718;21.798;2023-03-04T00:50:29;78.77;;;21.63;;
17832;SDS011;9041;49.718;21.798;2023-03-04T00:52:56;92.03;;;22.47;;
17832;SDS011;9041;49.718;21.798;2023-03-04T00:55:24;79.00;;;22.43;;
17832;SDS011;9041;49.718;21.798;2023-03-04T00:57:52;75.73;;;21.80;;
17832;SDS011;9041;49.718;21.798;2023-03-04T01:00:20;84.97;;;23.17;;
17832;SDS011;9041;49.718;21.798;2023-03-04T01:02:47;78.23;;;22.27;;
17832;SDS011;9041;49.718;21.798;2023-03-04T01:05:14;98.93;;;28.00;;
17832;SDS011;9041;49.718;21.798;2023-03-04T01:07:41;85.93;;;22.27;;
17832;SDS011;9041;49.718;21.798;2023-03-04T01:10:08;77.87;;;23.00;;
17832;SDS011;9041;49.718;21.798;2023-03-04T01:12:37;90.43;;;25.27;;
17832;SDS011;9041;49.718;21.798;2023-03-04T01:15:08;84.13;;;23.07;;
17832;SDS011;9041;49.718;21.798;2023-03-04T01:17:35;86.80;;;24.03;;
17832;SDS011;9041;49.718;21.798;2023-03-04T01:20:02;86.83;;;25.07;;
17832;SDS011;9041;49.718;21.798;2023-03-04T01:22:30;75.77;;;22.33;;
17832;SDS011;9041;49.718;21.798;2023-03-04T01:24:57;80.03;;;24.27;;
17832;SDS011;9041;49.718;21.798;2023-03-04T01:27:24;90.53;;;23.97;;
17832;SDS011;9041;49.718;21.798;2023-03-04T01:29:51;82.17;;;22.97;;
17832;SDS011;9041;49.718;21.798;2023-03-04T01:32:19;76.17;;;22.27;;
17832;SDS011;9041;49.718;21.798;2023-03-04T01:34:46;78.60;;;23.00;;
17832;SDS011;9041;49.718;21.798;2023-03-04T01:37:13;79.93;;;23.07;;
17832;SDS011;9041;49.718;21.798;2023-03-04T01:39:40;76.67;;;23.90;;
17832;SDS011;9041;49.718;21.798;2023-03-04T01:42:09;86.37;;;22.90;;
17832;SDS011;9041;49.718;21.798;2023-03-04T01:44:42;87.30;;;25.40;;
17832;SDS011;9041;49.718;21.798;2023-03-04T01:47:09;83.90;;;23.73;;
17832;SDS011;9041;49.718;21.798;2023-03-04T01:49:38;90.37;;;25.67;;
17832;SDS011;9041;49.718;21.798;2023-03-04T01:52:08;92.83;;;25.07;;
17832;SDS011;9041;49.718;21.798;2023-03-04T01:54:36;86.37;;;23.57;;
17832;SDS011;9041;49.718;21.798;2023-03-04T01:57:05;87.40;;;25.43;;
17832;SDS011;9041;49.718;21.798;2023-03-04T01:59:32;89.20;;;24.70;;
17832;SDS011;9041;49.718;21.798;2023-03-04T02:01:59;89.13;;;23.60;;
17832;SDS011;9041;49.718;21.798;2023-03-04T02:04:28;81.70;;;23.30;;
17832;SDS011;9041;49.718;21.798;2023-03-04T02:06:58;83.17;;;24.00;;
17832;SDS011;9041;49.718;21.798;2023-03-04T02:09:25;91.27;;;23.43;;
17832;SDS011;9041;49.718;21.798;2023-03-04T02:11:52;90.43;;;24.90;;
17832;SDS011;9041;49.718;21.798;2023-03-04T02:14:19;82.13;;;22.63;;
17832;SDS011;9041;49.718;21.798;2023-03-04T02:16:46;82.40;;;23.00;;
17832;SDS011;9041;49.718;21.798;2023-03-04T02:19:15;80.87;;;23.93;;
17832;SDS011;9041;49.718;21.798;2023-03-04T02:21:49;86.70;;;24.77;;
17832;SDS011;9041;49.718;21.798;2023-03-04T02:24:21;88.03;;;23.33;;
17832;SDS011;9041;49.718;21.798;2023-03-04T02:26:53;95.83;;;25.10;;
17832;SDS011;9041;49.718;21.798;2023-03-04T02:29:20;78.87;;;24.20;;
17832;SDS011;9041;49.718;21.798;2023-03-04T02:31:48;83.77;;;24.30;;
17832;SDS011;9041;49.718;21.798;2023-03-04T02:34:16;88.83;;;26.27;;
17832;SDS011;9041;49.718;21.798;2023-03-04T02:36:44;90.50;;;24.73;;
17832;SDS011;9041;49.718;21.798;2023-03-04T02:39:12;87.30;;;25.50;;
17832;SDS011;9041;49.718;21.798;2023-03-04T02:41:46;85.97;;;26.60;;
17832;SDS011;9041;49.718;21.798;2023-03-04T02:44:16;99.90;;;25.93;;
17832;SDS011;9041;49.718;21.798;2023-03-04T02:46:44;92.20;;;27.90;;
17832;SDS011;9041;49.718;21.798;2023-03-04T02:49:12;106.83;;;28.47;;
17832;SDS011;9041;49.718;21.798;2023-03-04T02:51:39;97.47;;;26.90;;
17832;SDS011;9041;49.718;21.798;2023-03-04T02:54:13;100.70;;;27.50;;
17832;SDS011;9041;49.718;21.798;2023-03-04T02:56:43;92.20;;;25.93;;
17832;SDS011;9041;49.718;21.798;2023-03-04T02:59:10;92.53;;;25.87;;
17832;SDS011;9041;49.718;21.798;2023-03-04T03:01:39;92.77;;;25.93;;
17832;SDS011;9041;49.718;21.798;2023-03-04T03:04:05;74.87;;;23.13;;
17832;SDS011;9041;49.718;21.798;2023-03-04T03:06:34;90.37;;;26.73;;
17832;SDS011;9041;49.718;21.798;2023-03-04T03:09:04;94.40;;;26.07;;
17832;SDS011;9041;49.718;21.798;2023-03-04T03:11:31;89.63;;;25.67;;
17832;SDS011;9041;49.718;21.798;2023-03-04T03:13:58;93.67;;;25.73;;
17832;SDS011;9041;49.718;21.798;2023-03-04T03:16:25;79.37;;;23.27;;
17832;SDS011;9041;49.718;21.798;2023-03-04T03:18:53;84.07;;;23.87;;
17832;SDS011;9041;49.718;21.798;2023-03-04T03:21:20;85.87;;;24.87;;
17832;SDS011;9041;49.718;21.798;2023-03-04T03:23:47;79.80;;;23.10;;
17832;SDS011;9041;49.718;21.798;2023-03-04T03:26:14;88.03;;;24.57;;
17832;SDS011;9041;49.718;21.798;2023-03-04T03:28:41;84.03;;;25.53;;
17832;SDS011;9041;49.718;21.798;2023-03-04T03:31:08;79.20;;;23.47;;
17832;SDS011;9041;49.718;21.798;2023-03-04T03:33:35;82.23;;;24.10;;
17832;SDS011;9041;49.718;21.798;2023-03-04T03:36:04;85.53;;;22.90;;
17832;SDS011;9041;49.718;21.798;2023-03-04T03:38:32;86.93;;;24.53;;
17832;SDS011;9041;49.718;21.798;2023-03-04T03:40:58;94.00;;;26.37;;
17832;SDS011;9041;49.718;21.798;2023-03-04T03:43:25;91.07;;;25.87;;
17832;SDS011;9041;49.718;21.798;2023-03-04T03:45:52;94.50;;;25.67;;
17832;SDS011;9041;49.718;21.798;2023-03-04T03:48:19;95.40;;;26.70;;
17832;SDS011;9041;49.718;21.798;2023-03-04T03:50:46;96.43;;;27.10;;
17832;SDS011;9041;49.718;21.798;2023-03-04T03:53:14;94.27;;;26.40;;
17832;SDS011;9041;49.718;21.798;2023-03-04T03:55:40;94.87;;;26.30;;
17832;SDS011;9041;49.718;21.798;2023-03-04T03:58:07;99.50;;;28.20;;
17832;SDS011;9041;49.718;21.798;2023-03-04T04:00:34;97.97;;;26.57;;
17832;SDS011;9041;49.718;21.798;2023-03-04T04:03:01;97.63;;;27.13;;
17832;SDS011;9041;49.718;21.798;2023-03-04T04:05:28;89.73;;;26.27;;
17832;SDS011;9041;49.718;21.798;2023-03-04T04:07:55;98.00;;;26.90;;
17832;SDS011;9041;49.718;21.798;2023-03-04T04:10:23;88.37;;;25.17;;
17832;SDS011;9041;49.718;21.798;2023-03-04T04:12:50;92.83;;;25.37;;
17832;SDS011;9041;49.718;21.798;2023-03-04T04:15:17;100.10;;;26.90;;
17832;SDS011;9041;49.718;21.798;2023-03-04T04:17:44;96.83;;;27.70;;
17832;SDS011;9041;49.718;21.798;2023-03-04T04:20:11;87.30;;;24.60;;
17832;SDS011;9041;49.718;21.798;2023-03-04T04:22:38;89.73;;;26.67;;
17832;SDS011;9041;49.718;21.798;2023-03-04T04:25:05;79.83;;;25.57;;
17832;SDS011;9041;49.718;21.798;2023-03-04T04:27:48;90.87;;;26.33;;
17832;SDS011;9041;49.718;21.798;2023-03-04T04:30:15;97.40;;;27.33;;
17832;SDS011;9041;49.718;21.798;2023-03-04T04:32:42;79.83;;;26.27;;
17832;SDS011;9041;49.718;21.798;2023-03-04T04:35:09;89.87;;;26.77;;
17832;SDS011;9041;49.718;21.798;2023-03-04T04:37:36;87.00;;;25.37;;
17832;SDS011;9041;49.718;21.798;2023-03-04T04:40:05;83.80;;;23.83;;
17832;SDS011;9041;49.718;21.798;2023-03-04T04:42:32;100.30;;;27.37;;
17832;SDS011;9041;49.718;21.798;2023-03-04T04:45:01;103.97;;;25.67;;
17832;SDS011;9041;49.718;21.798;2023-03-04T04:47:27;90.20;;;24.83;;
17832;SDS011;9041;49.718;21.798;2023-03-04T04:49:54;92.43;;;25.27;;
17832;SDS011;9041;49.718;21.798;2023-03-04T04:52:21;95.10;;;27.53;;
17832;SDS011;9041;49.718;21.798;2023-03-04T04:54:48;99.40;;;27.17;;
17832;SDS011;9041;49.718;21.798;2023-03-04T04:57:15;87.00;;;25.60;;
17832;SDS011;9041;49.718;21.798;2023-03-04T04:59:42;90.57;;;26.97;;
17832;SDS011;9041;49.718;21.798;2023-03-04T05:02:11;102.23;;;27.20;;
17832;SDS011;9041;49.718;21.798;2023-03-04T05:04:37;101.07;;;27.17;;
17832;SDS011;9041;49.718;21.798;2023-03-04T05:07:04;94.67;;;29.10;;
17832;SDS011;9041;49.718;21.798;2023-03-04T05:09:32;106.83;;;28.83;;
17832;SDS011;9041;49.718;21.798;2023-03-04T05:11:58;88.40;;;26.93;;
17832;SDS011;9041;49.718;21.798;2023-03-04T05:14:25;94.47;;;27.20;;
17832;SDS011;9041;49.718;21.798;2023-03-04T05:16:52;100.90;;;26.73;;
17832;SDS011;9041;49.718;21.798;2023-03-04T05:19:20;94.13;;;26.13;;
17832;SDS011;9041;49.718;21.798;2023-03-04T05:21:47;92.20;;;26.10;;
17832;SDS011;9041;49.718;21.798;2023-03-04T05:24:13;99.77;;;27.93;;
17832;SDS011;9041;49.718;21.798;2023-03-04T05:26:41;109.80;;;32.27;;
17832;SDS011;9041;49.718;21.798;2023-03-04T05:29:08;128.30;;;37.57;;
17832;SDS011;9041;49.718;21.798;2023-03-04T05:31:34;109.93;;;33.20;;
17832;SDS011;9041;49.718;21.798;2023-03-04T05:34:01;104.57;;;28.43;;
17832;SDS011;9041;49.718;21.798;2023-03-04T05:36:30;95.87;;;27.53;;
17832;SDS011;9041;49.718;21.798;2023-03-04T05:38:56;114.70;;;29.20;;
17832;SDS011;9041;49.718;21.798;2023-03-04T05:41:23;100.13;;;28.47;;
17832;SDS011;9041;49.718;21.798;2023-03-04T05:43:50;107.90;;;30.37;;
17832;SDS011;9041;49.718;21.798;2023-03-04T05:46:17;119.87;;;31.67;;
17832;SDS011;9041;49.718;21.798;2023-03-04T05:49:04;109.40;;;32.47;;
17832;SDS011;9041;49.718;21.798;2023-03-04T05:51:33;119.10;;;32.37;;
17832;SDS011;9041;49.718;21.798;2023-03-04T05:54:00;116.97;;;31.10;;
17832;SDS011;9041;49.718;21.798;2023-03-04T05:56:27;96.50;;;27.27;;
17832;SDS011;9041;49.718;21.798;2023-03-04T05:58:56;100.10;;;30.07;;
17832;SDS011;9041;49.718;21.798;2023-03-04T06:01:23;96.13;;;28.53;;
17832;SDS011;9041;49.718;21.798;2023-03-04T06:03:51;93.73;;;28.10;;
17832;SDS011;9041;49.718;21.798;2023-03-04T06:06:18;94.73;;;27.30;;
17832;SDS011;9041;49.718;21.798;2023-03-04T06:08:46;83.80;;;26.40;;
17832;SDS011;9041;49.718;21.798;2023-03-04T06:11:13;87.77;;;25.33;;
17832;SDS011;9041;49.718;21.798;2023-03-04T06:13:39;92.80;;;26.83;;
17832;SDS011;9041;49.718;21.798;2023-03-04T06:16:07;90.33;;;27.57;;
17832;SDS011;9041;49.718;21.798;2023-03-04T06:18:33;82.70;;;24.83;;
17832;SDS011;9041;49.718;21.798;2023-03-04T06:21:00;98.47;;;27.73;;
17832;SDS011;9041;49.718;21.798;2023-03-04T06:23:29;86.07;;;26.80;;
17832;SDS011;9041;49.718;21.798;2023-03-04T06:25:58;88.90;;;26.27;;
17832;SDS011;9041;49.718;21.798;2023-03-04T06:28:41;97.33;;;28.57;;
17832;SDS011;9041;49.718;21.798;2023-03-04T06:31:08;90.27;;;27.60;;
17832;SDS011;9041;49.718;21.798;2023-03-04T06:33:35;85.37;;;26.23;;
17832;SDS011;9041;49.718;21.798;2023-03-04T06:36:02;80.20;;;26.33;;
17832;SDS011;9041;49.718;21.798;2023-03-04T06:38:29;98.23;;;28.50;;
17832;SDS011;9041;49.718;21.798;2023-03-04T06:41:04;84.83;;;25.80;;
17832;SDS011;9041;49.718;21.798;2023-03-04T06:43:31;80.30;;;23.83;;
17832;SDS011;9041;49.718;21.798;2023-03-04T06:45:58;80.57;;;23.57;;
17832;SDS011;9041;49.718;21.798;2023-03-04T06:48:25;87.47;;;25.90;;
17832;SDS011;9041;49.718;21.798;2023-03-04T06:50:52;87.13;;;24.87;;
17832;SDS011;9041;49.718;21.798;2023-03-04T06:53:19;74.80;;;24.37;;
17832;SDS011;9041;49.718;21.798;2023-03-04T06:55:45;78.33;;;23.93;;
17832;SDS011;9041;49.718;21.798;2023-03-04T06:58:15;75.27;;;23.63;;
17832;SDS011;9041;49.718;21.798;2023-03-04T07:00:42;78.57;;;23.90;;
17832;SDS011;9041;49.718;21.798;2023-03-04T07:03:10;74.23;;;24.27;;
17832;SDS011;9041;49.718;21.798;2023-03-04T07:05:37;73.80;;;22.67;;
17832;SDS011;9041;49.718;21.798;2023-03-04T07:08:03;74.60;;;22.27;;
17832;SDS011;9041;49.718;21.798;2023-03-04T07:10:32;77.53;;;21.27;;
17832;SDS011;9041;49.718;21.798;2023-03-04T07:12:58;74.93;;;22.97;;
17832;SDS011;9041;49.718;21.798;2023-03-04T07:15:27;75.57;;;22.67;;
17832;SDS011;9041;49.718;21.798;2023-03-04T07:17:54;66.23;;;20.27;;
17832;SDS011;9041;49.718;21.798;2023-03-04T07:20:21;73.80;;;22.87;;
17832;SDS011;9041;49.718;21.798;2023-03-04T07:22:48;73.53;;;21.97;;
17832;SDS011;9041;49.718;21.798;2023-03-04T07:25:15;75.03;;;22.37;;
17832;SDS011;9041;49.718;21.798;2023-03-04T07:27:43;75.37;;;22.93;;
17832;SDS011;9041;49.718;21.798;2023-03-04T07:30:10;73.23;;;24.00;;
17832;SDS011;9041;49.718;21.798;2023-03-04T07:32:38;73.07;;;24.07;;
17832;SDS011;9041;49.718;21.798;2023-03-04T07:35:06;65.03;;;21.33;;
17832;SDS011;9041;49.718;21.798;2023-03-04T07:37:34;66.77;;;22.53;;
17832;SDS011;9041;49.718;21.798;2023-03-04T07:40:01;64.60;;;23.23;;
17832;SDS011;9041;49.718;21.798;2023-03-04T07:42:28;70.10;;;23.73;;
17832;SDS011;9041;49.718;21.798;2023-03-04T07:44:55;62.30;;;20.40;;
17832;SDS011;9041;49.718;21.798;2023-03-04T07:47:23;63.60;;;21.37;;
17832;SDS011;9041;49.718;21.798;2023-03-04T07:49:51;61.20;;;20.57;;
17832;SDS011;9041;49.718;21.798;2023-03-04T07:52:18;67.50;;;21.03;;
17832;SDS011;9041;49.718;21.798;2023-03-04T07:54:45;67.43;;;20.00;;
17832;SDS011;9041;49.718;21.798;2023-03-04T07:57:12;62.43;;;19.83;;
17832;SDS011;9041;49.718;21.798;2023-03-04T07:59:39;61.47;;;21.20;;
17832;SDS011;9041;49.718;21.798;2023-03-04T08:02:06;61.27;;;20.03;;
17832;SDS011;9041;49.718;21.798;2023-03-04T08:04:34;57.33;;;20.27;;
17832;SDS011;9041;49.718;21.798;2023-03-04T08:07:02;68.03;;;21.20;;
17832;SDS011;9041;49.718;21.798;2023-03-04T08:09:29;60.77;;;21.43;;
17832;SDS011;9041;49.718;21.798;2023-03-04T08:11:56;68.80;;;23.13;;
17832;SDS011;9041;49.718;21.798;2023-03-04T08:14:23;58.50;;;19.43;;
17832;SDS011;9041;49.718;21.798;2023-03-04T08:16:50;63.63;;;21.43;;
17832;SDS011;9041;49.718;21.798;2023-03-04T08:19:17;62.70;;;24.20;;
17832;SDS011;9041;49.718;21.798;2023-03-04T08:21:44;66.20;;;22.33;;
17832;SDS011;9041;49.718;21.798;2023-03-04T08:24:12;58.93;;;21.10;;
17832;SDS011;9041;49.718;21.798;2023-03-04T08:26:40;63.80;;;21.07;;
17832;SDS011;9041;49.718;21.798;2023-03-04T08:29:09;56.80;;;20.50;;
17832;SDS011;9041;49.718;21.798;2023-03-04T08:31:37;56.47;;;20.93;;
17832;SDS011;9041;49.718;21.798;2023-03-04T08:34:05;61.60;;;20.57;;
17832;SDS011;9041;49.718;21.798;2023-03-04T08:36:34;56.57;;;19.90;;
17832;SDS011;9041;49.718;21.798;2023-03-04T08:39:02;49.97;;;18.20;;
17832;SDS011;9041;49.718;21.798;2023-03-04T08:41:30;46.93;;;17.67;;
17832;SDS011;9041;49.718;21.798;2023-03-04T08:43:58;56.60;;;19.13;;
17832;SDS011;9041;49.718;21.798;2023-03-04T08:46:25;54.30;;;18.83;;
17832;SDS011;9041;49.718;21.798;2023-03-04T08:48:52;45.20;;;16.60;;
17832;SDS011;9041;49.718;21.798;2023-03-04T08:51:19;42.07;;;15.37;;
17832;SDS011;9041;49.718;21.798;2023-03-04T08:53:46;43.03;;;16.23;;
17832;SDS011;9041;49.718;21.798;2023-03-04T08:56:13;47.80;;;15.17;;
17832;SDS011;9041;49.718;21.798;2023-03-04T08:58:42;42.33;;;15.77;;
17832;SDS011;9041;49.718;21.798;2023-03-04T09:01:09;44.67;;;15.27;;
17832;SDS011;9041;49.718;21.798;2023-03-04T09:03:37;46.57;;;17.07;;
17832;SDS011;9041;49.718;21.798;2023-03-04T09:06:05;42.40;;;16.03;;
17832;SDS011;9041;49.718;21.798;2023-03-04T09:08:32;45.03;;;16.80;;
17832;SDS011;9041;49.718;21.798;2023-03-04T09:10:59;41.57;;;14.90;;
17832;SDS011;9041;49.718;21.798;2023-03-04T09:13:29;39.33;;;14.10;;
17832;SDS011;9041;49.718;21.798;2023-03-04T09:15:58;40.40;;;14.52;;
17832;SDS011;9041;49.718;21.798;2023-03-04T09:18:26;34.73;;;14.30;;
17832;SDS011;9041;49.718;21.798;2023-03-04T09:20:53;39.70;;;13.83;;
17832;SDS011;9041;49.718;21.798;2023-03-04T09:23:20;34.33;;;12.90;;
17832;SDS011;9041;49.718;21.798;2023-03-04T09:25:47;34.00;;;12.65;;
17832;SDS011;9041;49.718;21.798;2023-03-04T09:28:14;36.97;;;12.98;;
17832;SDS011;9041;49.718;21.798;2023-03-04T09:30:42;38.00;;;13.32;;
17832;SDS011;9041;49.718;21.798;2023-03-04T09:33:11;38.55;;;13.38;;
17832;SDS011;9041;49.718;21.798;2023-03-04T09:35:38;38.22;;;12.98;;
17832;SDS011;9041;49.718;21.798;2023-03-04T09:38:04;44.83;;;14.68;;
17832;SDS011;9041;49.718;21.798;2023-03-04T09:40:32;35.65;;;13.35;;
17832;SDS011;9041;49.718;21.798;2023-03-04T09:43:04;38.53;;;14.00;;
17832;SDS011;9041;49.718;21.798;2023-03-04T09:45:34;37.95;;;13.65;;
17832;SDS011;9041;49.718;21.798;2023-03-04T09:48:03;37.15;;;13.85;;
17832;SDS011;9041;49.718;21.798;2023-03-04T09:50:57;35.22;;;14.70;;
17832;SDS011;9041;49.718;21.798;2023-03-04T09:53:32;34.28;;;13.93;;
17832;SDS011;9041;49.718;21.798;2023-03-04T09:56:03;35.83;;;14.20;;
17832;SDS011;9041;49.718;21.798;2023-03-04T09:58:34;38.35;;;13.90;;
17832;SDS011;9041;49.718;21.798;2023-03-04T10:01:09;34.45;;;13.70;;
17832;SDS011;9041;49.718;21.798;2023-03-04T10:03:42;34.35;;;13.85;;
17832;SDS011;9041;49.718;21.798;2023-03-04T10:06:14;35.38;;;13.60;;
17832;SDS011;9041;49.718;21.798;2023-03-04T10:08:43;41.53;;;14.68;;
17832;SDS011;9041;49.718;21.798;2023-03-04T10:11:13;44.78;;;15.32;;
17832;SDS011;9041;49.718;21.798;2023-03-04T10:13:46;41.88;;;15.32;;
17832;SDS011;9041;49.718;21.798;2023-03-04T10:16:23;32.83;;;13.98;;
17832;SDS011;9041;49.718;21.798;2023-03-04T10:18:54;38.47;;;14.85;;
17832;SDS011;9041;49.718;21.798;2023-03-04T10:21:22;37.30;;;15.50;;
17832;SDS011;9041;49.718;21.798;2023-03-04T10:24:09;40.78;;;14.43;;
17832;SDS011;9041;49.718;21.798;2023-03-04T10:26:39;42.58;;;16.13;;
17832;SDS011;9041;49.718;21.798;2023-03-04T10:29:07;41.95;;;16.77;;
17832;SDS011;9041;49.718;21.798;2023-03-04T10:31:35;40.20;;;15.82;;
17832;SDS011;9041;49.718;21.798;2023-03-04T10:34:03;44.83;;;18.80;;
17832;SDS011;9041;49.718;21.798;2023-03-04T10:36:39;54.58;;;19.48;;
17832;SDS011;9041;49.718;21.798;2023-03-04T10:39:16;51.95;;;18.80;;
17832;SDS011;9041;49.718;21.798;2023-03-04T10:41:45;52.35;;;18.80;;
17832;SDS011;9041;49.718;21.798;2023-03-04T10:44:20;46.25;;;17.83;;
17832;SDS011;9041;49.718;21.798;2023-03-04T10:46:47;48.83;;;18.38;;
17832;SDS011;9041;49.718;21.798;2023-03-04T10:49:16;46.15;;;17.88;;
17832;SDS011;9041;49.718;21.798;2023-03-04T10:51:45;45.22;;;17.92;;
17832;SDS011;9041;49.718;21.798;2023-03-04T10:54:18;47.10;;;17.67;;
17832;SDS011;9041;49.718;21.798;2023-03-04T10:56:58;50.90;;;20.00;;
17832;SDS011;9041;49.718;21.798;2023-03-04T10:59:31;47.90;;;19.13;;
17832;SDS011;9041;49.718;21.798;2023-03-04T11:02:13;54.17;;;20.20;;
17832;SDS011;9041;49.718;21.798;2023-03-04T11:04:50;59.40;;;21.50;;
17832;SDS011;9041;49.718;21.798;2023-03-04T11:07:18;49.37;;;19.80;;
17832;SDS011;9041;49.718;21.798;2023-03-04T11:09:46;62.77;;;22.00;;
17832;SDS011;9041;49.718;21.798;2023-03-04T11:12:15;51.57;;;19.60;;
17832;SDS011;9041;49.718;21.798;2023-03-04T11:14:44;56.73;;;20.77;;
17832;SDS011;9041;49.718;21.798;2023-03-04T11:17:17;54.70;;;20.07;;
17832;SDS011;9041;49.718;21.798;2023-03-04T11:19:47;59.40;;;22.50;;
17832;SDS011;9041;49.718;21.798;2023-03-04T11:22:19;52.93;;;20.23;;
17832;SDS011;9041;49.718;21.798;2023-03-04T11:24:47;60.13;;;21.50;;
17832;SDS011;9041;49.718;21.798;2023-03-04T11:27:22;59.30;;;21.97;;
17832;SDS011;9041;49.718;21.798;2023-03-04T11:29:51;62.17;;;22.27;;
17832;SDS011;9041;49.718;21.798;2023-03-04T11:32:21;59.73;;;22.03;;
17832;SDS011;9041;49.718;21.798;2023-03-04T11:34:50;63.40;;;22.37;;
17832;SDS011;9041;49.718;21.798;2023-03-04T11:37:23;61.27;;;22.07;;
17832;SDS011;9041;49.718;21.798;2023-03-04T11:39:55;60.90;;;21.20;;
17832;SDS011;9041;49.718;21.798;2023-03-04T11:42:27;62.33;;;22.53;;
17832;SDS011;9041;49.718;21.798;2023-03-04T11:44:58;67.70;;;24.47;;
17832;SDS011;9041;49.718;21.798;2023-03-04T11:47:32;65.90;;;22.20;;
17832;SDS011;9041;49.718;21.798;2023-03-04T11:50:17;58.50;;;20.60;;
17832;SDS011;9041;49.718;21.798;2023-03-04T11:55:50;58.87;;;21.40;;
17832;SDS011;9041;49.718;21.798;2023-03-04T11:58:39;60.40;;;21.43;;
17832;SDS011;9041;49.718;21.798;2023-03-04T12:01:19;56.63;;;22.33;;
17832;SDS011;9041;49.718;21.798;2023-03-04T12:03:54;54.60;;;21.23;;
17832;SDS011;9041;49.718;21.798;2023-03-04T12:06:31;56.30;;;22.27;;
17832;SDS011;9041;49.718;21.798;2023-03-04T12:09:10;61.37;;;22.20;;
17832;SDS011;9041;49.718;21.798;2023-03-04T12:11:45;55.13;;;20.10;;
17832;SDS011;9041;49.718;21.798;2023-03-04T12:17:04;54.60;;;21.33;;
17832;SDS011;9041;49.718;21.798;2023-03-04T12:23:09;54.67;;;20.73;;
17832;SDS011;9041;49.718;21.798;2023-03-04T12:25:50;58.37;;;21.57;;
17832;SDS011;9041;49.718;21.798;2023-03-04T12:28:25;53.57;;;20.17;;
17832;SDS011;9041;49.718;21.798;2023-03-04T12:31:07;55.93;;;20.60;;
17832;SDS011;9041;49.718;21.798;2023-03-04T12:33:50;55.97;;;20.67;;
17832;SDS011;9041;49.718;21.798;2023-03-04T12:36:24;56.93;;;21.10;;
17832;SDS011;9041;49.718;21.798;2023-03-04T12:38:58;54.83;;;21.20;;
17832;SDS011;9041;49.718;21.798;2023-03-04T12:41:33;45.03;;;19.47;;
17832;SDS011;9041;49.718;21.798;2023-03-04T12:44:08;51.03;;;19.67;;
17832;SDS011;9041;49.718;21.798;2023-03-04T12:46:43;55.43;;;19.43;;
17832;SDS011;9041;49.718;21.798;2023-03-04T12:49:32;51.37;;;19.23;;
17832;SDS011;9041;49.718;21.798;2023-03-04T12:52:09;50.20;;;18.67;;
17832;SDS011;9041;49.718;21.798;2023-03-04T12:54:40;44.97;;;18.73;;
17832;SDS011;9041;49.718;21.798;2023-03-04T12:57:11;46.30;;;18.57;;
17832;SDS011;9041;49.718;21.798;2023-03-04T12:59:39;46.90;;;18.43;;
17832;SDS011;9041;49.718;21.798;2023-03-04T13:02:17;50.80;;;19.73;;
17832;SDS011;9041;49.718;21.798;2023-03-04T13:05:01;41.90;;;17.57;;
17832;SDS011;9041;49.718;21.798;2023-03-04T13:07:38;54.43;;;19.27;;
17832;SDS011;9041;49.718;21.798;2023-03-04T13:10:10;48.00;;;19.17;;
17832;SDS011;9041;49.718;21.798;2023-03-04T13:12:46;50.03;;;17.73;;
17832;SDS011;9041;49.718;21.798;2023-03-04T13:15:26;43.33;;;18.50;;
17832;SDS011;9041;49.718;21.798;2023-03-04T13:17:57;54.20;;;19.00;;
17832;SDS011;9041;49.718;21.798;2023-03-04T13:20:32;44.27;;;17.07;;
17832;SDS011;9041;49.718;21.798;2023-03-04T13:28:47;40.23;;;14.40;;
17832;SDS011;9041;49.718;21.798;2023-03-04T13:31:20;40.53;;;16.23;;
17832;SDS011;9041;49.718;21.798;2023-03-04T13:34:01;31.40;;;13.37;;
17832;SDS011;9041;49.718;21.798;2023-03-04T13:39:34;31.00;;;13.00;;
17832;SDS011;9041;49.718;21.798;2023-03-04T13:42:02;34.73;;;13.20;;
17832;SDS011;9041;49.718;21.798;2023-03-04T13:44:33;29.90;;;12.50;;
17832;SDS011;9041;49.718;21.798;2023-03-04T13:47:18;35.13;;;13.43;;
17832;SDS011;9041;49.718;21.798;2023-03-04T13:49:47;29.10;;;11.60;;
17832;SDS011;9041;49.718;21.798;2023-03-04T13:52:35;28.57;;;11.43;;
17832;SDS011;9041;49.718;21.798;2023-03-04T13:57:59;26.97;;;11.37;;
17832;SDS011;9041;49.718;21.798;2023-03-04T14:00:28;26.30;;;10.57;;
17832;SDS011;9041;49.718;21.798;2023-03-04T14:03:10;29.40;;;11.77;;
17832;SDS011;9041;49.718;21.798;2023-03-04T14:05:38;27.67;;;11.03;;
17832;SDS011;9041;49.718;21.798;2023-03-04T14:10:53;31.00;;;11.30;;
17832;SDS011;9041;49.718;21.798;2023-03-04T14:13:20;26.23;;;10.20;;
17832;SDS011;9041;49.718;21.798;2023-03-04T14:15:54;26.13;;;9.27;;
17832;SDS011;9041;49.718;21.798;2023-03-04T14:18:21;26.43;;;9.97;;
17832;SDS011;9041;49.718;21.798;2023-03-04T14:20:49;28.57;;;10.73;;
17832;SDS011;9041;49.718;21.798;2023-03-04T14:23:23;27.70;;;9.93;;
17832;SDS011;9041;49.718;21.798;2023-03-04T14:26:02;22.93;;;9.93;;
17832;SDS011;9041;49.718;21.798;2023-03-04T14:28:29;24.97;;;9.13;;
17832;SDS011;9041;49.718;21.798;2023-03-04T14:30:58;23.27;;;9.33;;
17832;SDS011;9041;49.718;21.798;2023-03-04T14:33:25;28.10;;;9.03;;
17832;SDS011;9041;49.718;21.798;2023-03-04T14:35:54;28.37;;;11.30;;
17832;SDS011;9041;49.718;21.798;2023-03-04T14:38:24;19.90;;;9.67;;
17832;SDS011;9041;49.718;21.798;2023-03-04T14:40:54;20.13;;;8.57;;
17832;SDS011;9041;49.718;21.798;2023-03-04T14:43:23;19.73;;;8.73;;
17832;SDS011;9041;49.718;21.798;2023-03-04T14:45:51;23.57;;;8.80;;
17832;SDS011;9041;49.718;21.798;2023-03-04T14:48:21;22.33;;;8.53;;
17832;SDS011;9041;49.718;21.798;2023-03-04T14:50:51;23.43;;;9.23;;
17832;SDS011;9041;49.718;21.798;2023-03-04T14:53:20;28.87;;;11.57;;
17832;SDS011;9041;49.718;21.798;2023-03-04T14:55:55;21.80;;;9.70;;
17832;SDS011;9041;49.718;21.798;2023-03-04T14:58:24;27.33;;;10.77;;